createdAt,value
2018-10-18T00:02:18.690Z,78.80
2018-10-18T00:04:49.222Z,78.80
2018-10-18T00:07:19.785Z,79.10
2018-10-18T00:09:50.309Z,79.50
2018-10-18T00:12:20.870Z,79.40
2018-10-18T00:14:51.446Z,79.20
2018-10-18T00:17:27.264Z,79.20
2018-10-18T00:19:57.955Z,79.60
2018-10-18T00:22:28.520Z,79.80
2018-10-18T00:24:59.085Z,80.50
2018-10-18T00:27:29.593Z,80.50
2018-10-18T00:30:00.224Z,80.10
2018-10-18T00:32:33.564Z,80.40
2018-10-18T00:35:04.181Z,80.20
2018-10-18T00:37:34.771Z,79.90
2018-10-18T00:40:05.793Z,80.50
2018-10-18T00:42:36.363Z,80.80
2018-10-18T00:45:08.633Z,80.70
2018-10-18T00:47:39.255Z,80.60
2018-10-18T00:50:11.378Z,81.40
2018-10-18T00:52:41.993Z,80.50
2018-10-18T00:55:12.794Z,80.20
2018-10-18T00:57:43.410Z,80.60
2018-10-18T01:00:14.078Z,80.80
2018-10-18T01:02:44.570Z,80.70
2018-10-18T01:05:15.504Z,80.60
2018-10-18T01:07:46.110Z,80.80
2018-10-18T01:10:16.708Z,81.10
2018-10-18T01:12:47.328Z,81.20
2018-10-18T01:15:17.810Z,81.10
2018-10-18T01:17:48.342Z,80.90
2018-10-18T01:20:18.958Z,81.20
2018-10-18T01:22:49.513Z,81.60
2018-10-18T01:25:20.131Z,81.20
2018-10-18T01:27:50.762Z,80.90
2018-10-18T01:30:21.301Z,81.00
2018-10-18T01:32:51.915Z,81.20
2018-10-18T01:35:22.723Z,81.00
2018-10-18T01:37:53.344Z,81.00
2018-10-18T01:40:25.295Z,81.20
2018-10-18T01:42:55.853Z,81.50
2018-10-18T01:45:26.562Z,80.90
2018-10-18T01:47:57.135Z,81.30
2018-10-18T01:50:27.761Z,82.10
2018-10-18T01:52:58.349Z,82.10
2018-10-18T01:55:28.947Z,81.80
2018-10-18T01:57:59.536Z,82.30
2018-10-18T02:00:30.158Z,82.30
2018-10-18T02:03:00.755Z,82.30
2018-10-18T02:05:31.294Z,82.30
2018-10-18T02:08:01.958Z,82.10
2018-10-18T02:10:32.482Z,83.00
2018-10-18T02:13:03.022Z,82.10
2018-10-18T02:15:33.591Z,83.30
2018-10-18T02:18:04.230Z,83.10
2018-10-18T02:20:34.706Z,82.00
2018-10-18T02:23:05.538Z,83.40
2018-10-18T02:25:36.059Z,83.20
2018-10-18T02:28:06.962Z,82.20
2018-10-18T02:30:37.512Z,84.00
2018-10-18T02:33:08.109Z,83.70
2018-10-18T02:35:38.676Z,83.30
2018-10-18T02:38:09.371Z,83.20
2018-10-18T02:40:39.896Z,83.70
2018-10-18T02:43:10.542Z,84.40
2018-10-18T02:45:41.101Z,84.60
2018-10-18T02:48:11.658Z,84.80
2018-10-18T02:50:42.174Z,84.90
2018-10-18T02:53:12.685Z,84.50
2018-10-18T02:55:43.266Z,84.30
2018-10-18T02:58:13.762Z,84.50
2018-10-18T03:00:44.353Z,84.50
2018-10-18T03:03:14.893Z,84.20
2018-10-18T03:05:45.462Z,84.80
2018-10-18T03:08:16.072Z,84.00
2018-10-18T03:10:46.581Z,84.00
2018-10-18T03:13:17.144Z,84.80
2018-10-18T03:15:47.663Z,84.00
2018-10-18T03:18:18.321Z,84.00
2018-10-18T03:20:48.817Z,84.30
2018-10-18T03:23:19.337Z,84.50
2018-10-18T03:25:49.910Z,84.50
2018-10-18T03:28:20.435Z,84.60
2018-10-18T03:30:51.020Z,84.80
2018-10-18T03:33:21.819Z,84.80
2018-10-18T03:35:52.388Z,85.10
2018-10-18T03:38:23.010Z,85.70
2018-10-18T03:40:53.604Z,85.60
2018-10-18T03:43:24.237Z,85.50
2018-10-18T03:45:54.811Z,85.60
2018-10-18T03:48:25.417Z,86.20
2018-10-18T03:50:55.981Z,86.40
2018-10-18T03:53:26.569Z,86.80
2018-10-18T03:55:57.142Z,87.00
2018-10-18T03:58:27.714Z,86.90
2018-10-18T04:00:58.269Z,87.10
2018-10-18T04:03:28.783Z,86.60
2018-10-18T04:05:59.401Z,86.70
2018-10-18T04:08:29.888Z,87.20
2018-10-18T04:11:00.479Z,88.60
2018-10-18T04:13:31.077Z,87.40
2018-10-18T04:16:01.629Z,87.20
2018-10-18T04:18:32.257Z,87.30
2018-10-18T04:21:02.797Z,88.30
2018-10-18T04:23:34.402Z,87.80
2018-10-18T04:26:05.395Z,87.80
2018-10-18T04:28:35.949Z,87.60
2018-10-18T04:31:06.591Z,88.30
2018-10-18T04:33:37.139Z,87.70
2018-10-18T04:36:07.730Z,87.70
2018-10-18T04:38:38.339Z,87.30
2018-10-18T04:41:08.892Z,87.10
2018-10-18T04:43:39.433Z,86.90
2018-10-18T04:46:09.953Z,86.80
2018-10-18T04:48:40.560Z,87.00
2018-10-18T04:51:11.158Z,87.20
2018-10-18T04:53:41.760Z,87.60
2018-10-18T04:56:12.305Z,87.90
2018-10-18T04:58:42.854Z,88.40
2018-10-18T05:01:13.492Z,88.10
2018-10-18T05:03:44.038Z,87.70
2018-10-18T05:06:14.620Z,87.70
2018-10-18T05:08:45.173Z,87.60
2018-10-18T05:11:15.836Z,87.50
2018-10-18T05:13:46.384Z,87.50
2018-10-18T05:16:16.986Z,87.70
2018-10-18T05:18:47.500Z,88.00
2018-10-18T05:21:18.066Z,87.70
2018-10-18T05:23:48.663Z,87.70
2018-10-18T05:26:19.292Z,88.00
2018-10-18T05:28:49.812Z,88.80
2018-10-18T05:31:20.432Z,88.10
2018-10-18T05:33:50.959Z,87.90
2018-10-18T05:36:21.537Z,88.40
2018-10-18T05:38:52.045Z,87.00
2018-10-18T05:41:22.644Z,86.80
2018-10-18T05:43:53.199Z,86.80
2018-10-18T05:46:23.825Z,87.10
2018-10-18T05:48:54.436Z,87.50
2018-10-18T05:51:25.016Z,87.60
2018-10-18T05:53:55.776Z,87.40
2018-10-18T05:56:26.262Z,87.10
2018-10-18T05:58:56.905Z,86.50
2018-10-18T06:01:27.519Z,86.30
2018-10-18T06:03:58.124Z,86.20
2018-10-18T06:06:28.714Z,86.30
2018-10-18T06:08:59.329Z,86.10
2018-10-18T06:11:31.588Z,85.20
2018-10-18T06:14:02.192Z,84.60
2018-10-18T06:16:32.765Z,85.40
2018-10-18T06:19:03.446Z,84.90
2018-10-18T06:21:34.128Z,85.60
2018-10-18T06:24:04.809Z,84.80
2018-10-18T06:26:35.426Z,84.70
2018-10-18T06:29:06.403Z,84.60
2018-10-18T06:31:36.961Z,85.60
2018-10-18T06:34:07.595Z,84.50
2018-10-18T06:36:38.206Z,84.00
2018-10-18T06:39:11.259Z,83.60
2018-10-18T06:41:42.166Z,84.60
2018-10-18T06:44:12.753Z,84.30
2018-10-18T06:46:43.420Z,83.60
2018-10-18T06:49:14.081Z,82.70
2018-10-18T06:51:44.786Z,81.90
2018-10-18T06:54:15.809Z,82.10
2018-10-18T06:56:46.357Z,81.40
2018-10-18T06:59:17.945Z,81.50
2018-10-18T07:01:48.689Z,80.80
2018-10-18T07:04:19.312Z,80.90
2018-10-18T07:06:49.882Z,81.00
2018-10-18T07:09:20.521Z,80.30
2018-10-18T07:11:51.170Z,79.90
2018-10-18T07:14:21.818Z,79.60
2018-10-18T07:16:52.450Z,79.00
2018-10-18T07:19:23.126Z,79.60
2018-10-18T07:21:53.736Z,79.60
2018-10-18T07:24:24.346Z,79.60
2018-10-18T07:26:55.006Z,79.70
2018-10-18T07:29:25.641Z,80.60
2018-10-18T07:31:57.654Z,79.70
2018-10-18T07:34:28.249Z,79.30
2018-10-18T07:36:58.944Z,78.90
2018-10-18T07:39:29.986Z,77.60
2018-10-18T07:42:00.737Z,77.50
2018-10-18T07:44:31.330Z,78.60
2018-10-18T07:47:02.055Z,79.00
2018-10-18T07:49:33.355Z,79.00
2018-10-18T07:52:04.063Z,78.90
2018-10-18T07:54:34.669Z,77.90
2018-10-18T07:57:05.496Z,78.20
2018-10-18T07:59:36.164Z,77.90
2018-10-18T08:02:06.845Z,77.50
2018-10-18T08:04:37.512Z,76.70
2018-10-18T08:07:08.264Z,76.50
2018-10-18T08:09:38.824Z,76.20
2018-10-18T08:12:09.471Z,76.30
2018-10-18T08:14:40.074Z,76.10
2018-10-18T08:17:10.756Z,75.50
2018-10-18T08:19:41.337Z,74.30
2018-10-18T08:22:12.200Z,74.30
2018-10-18T08:24:42.799Z,74.00
2018-10-18T08:27:13.469Z,73.80
2018-10-18T08:29:44.154Z,73.10
2018-10-18T08:32:14.808Z,72.20
2018-10-18T08:34:45.454Z,71.90
2018-10-18T08:37:16.136Z,72.60
2018-10-18T08:39:46.690Z,72.10
2018-10-18T08:42:17.310Z,71.70
2018-10-18T08:44:47.937Z,71.10
2018-10-18T08:47:18.542Z,71.30
2018-10-18T08:49:49.273Z,71.60
2018-10-18T08:52:19.923Z,71.20
2018-10-18T08:54:50.545Z,71.50
2018-10-18T08:57:21.145Z,71.70
2018-10-18T08:59:51.778Z,71.90
2018-10-18T09:02:22.381Z,71.70
2018-10-18T09:04:52.994Z,71.30
2018-10-18T09:07:23.585Z,71.10
2018-10-18T09:09:54.199Z,70.90
2018-10-18T09:12:24.900Z,70.90
2018-10-18T09:14:55.557Z,71.80
2018-10-18T09:17:26.303Z,70.70
2018-10-18T09:19:56.972Z,70.80
2018-10-18T09:22:27.702Z,69.50
2018-10-18T09:24:58.360Z,68.50
2018-10-18T09:27:29.092Z,67.70
2018-10-18T09:29:59.829Z,67.20
2018-10-18T09:32:30.517Z,65.80
2018-10-18T09:35:01.112Z,66.30
2018-10-18T09:37:31.733Z,65.20
2018-10-18T09:40:02.365Z,64.30
2018-10-18T09:42:32.990Z,63.30
2018-10-18T09:45:03.748Z,62.50
2018-10-18T09:47:34.291Z,62.70
2018-10-18T09:50:04.996Z,62.50
2018-10-18T09:52:35.600Z,61.50
2018-10-18T09:55:07.790Z,60.40
2018-10-18T09:57:38.337Z,61.60
2018-10-18T10:00:13.426Z,62.30
2018-10-18T10:02:51.007Z,62.60
2018-10-18T10:05:21.702Z,63.20
2018-10-18T10:07:52.429Z,62.40
2018-10-18T10:10:23.154Z,62.30
2018-10-18T10:12:53.816Z,62.20
2018-10-18T10:15:24.563Z,62.70
2018-10-18T10:17:55.261Z,61.60
2018-10-18T10:20:25.967Z,61.30
2018-10-18T10:22:56.713Z,60.10
2018-10-18T10:25:27.756Z,59.20
2018-10-18T10:27:58.610Z,58.70
2018-10-18T10:30:29.344Z,58.70
2018-10-18T10:32:59.940Z,59.70
2018-10-18T10:35:30.674Z,60.00
2018-10-18T10:38:01.286Z,60.40
2018-10-18T10:40:32.033Z,60.40
2018-10-18T10:43:02.737Z,60.00
2018-10-18T10:45:33.353Z,60.10
2018-10-18T10:48:04.184Z,60.10
2018-10-18T10:50:34.737Z,59.90
2018-10-18T10:53:05.524Z,59.80
2018-10-18T10:55:36.162Z,59.80
2018-10-18T10:58:07.329Z,60.00
2018-10-18T11:01:17.126Z,60.00
2018-10-18T11:03:48.343Z,60.10
2018-10-18T11:06:19.268Z,58.90
2018-10-18T11:08:49.894Z,59.00
2018-10-18T11:11:21.344Z,58.40
2018-10-18T11:13:52.095Z,57.70
2018-10-18T11:16:23.117Z,57.30
2018-10-18T11:18:53.894Z,57.60
2018-10-18T11:21:24.598Z,57.70
2018-10-18T11:23:55.366Z,57.20
2018-10-18T11:26:26.037Z,57.50
2018-10-18T11:28:56.709Z,58.40
2018-10-18T11:31:27.398Z,59.20
2018-10-18T11:33:58.046Z,59.00
2018-10-18T11:36:28.747Z,59.00
2018-10-18T11:38:59.366Z,58.80
2018-10-18T11:41:30.714Z,58.40
2018-10-18T11:44:01.436Z,58.50
2018-10-18T11:46:32.116Z,58.90
2018-10-18T11:49:02.785Z,58.60
2018-10-18T11:51:33.540Z,58.90
2018-10-18T11:54:04.218Z,58.10
2018-10-18T11:56:34.897Z,57.20
2018-10-18T11:59:06.365Z,57.50
2018-10-18T12:01:37.058Z,57.90
2018-10-18T12:04:07.722Z,56.90
2018-10-18T12:06:38.439Z,57.10
2018-10-18T12:09:11.582Z,57.40
2018-10-18T12:11:42.243Z,58.10
2018-10-18T12:14:12.961Z,58.60
2018-10-18T12:16:43.626Z,58.80
2018-10-18T12:19:14.556Z,58.50
2018-10-18T12:21:45.255Z,58.50
2018-10-18T12:24:15.935Z,58.60
2018-10-18T12:26:46.652Z,58.80
2018-10-18T12:29:17.404Z,58.90
2018-10-18T12:31:47.966Z,58.90
2018-10-18T12:34:18.662Z,59.00
2018-10-18T12:36:49.313Z,59.20
2018-10-18T12:39:19.961Z,59.20
2018-10-18T12:41:50.344Z,59.20
2018-10-18T12:44:20.733Z,58.80
2018-10-18T12:46:51.101Z,59.10
2018-10-18T12:49:21.450Z,59.20
2018-10-18T12:51:51.805Z,58.90
2018-10-18T12:54:22.157Z,57.50
2018-10-18T12:56:52.498Z,56.20
2018-10-18T12:59:23.193Z,56.10
2018-10-18T13:01:53.547Z,55.20
2018-10-18T13:04:23.948Z,54.40
2018-10-18T13:06:54.343Z,53.40
2018-10-18T13:09:24.719Z,53.70
2018-10-18T13:11:55.126Z,54.10
2018-10-18T13:14:25.529Z,54.50
2018-10-18T13:16:55.860Z,53.90
2018-10-18T13:19:26.554Z,53.40
2018-10-18T13:21:56.879Z,53.00
2018-10-18T13:24:27.257Z,53.20
2018-10-18T13:26:57.609Z,53.20
2018-10-18T13:29:28.025Z,53.30
2018-10-18T13:31:58.400Z,53.50
2018-10-18T13:34:28.712Z,53.60
2018-10-18T13:36:59.008Z,53.40
2018-10-18T13:39:29.339Z,53.40
2018-10-18T13:41:59.642Z,53.10
2018-10-18T13:44:29.960Z,52.00
2018-10-18T13:47:00.329Z,51.00
2018-10-18T13:49:30.694Z,51.40
2018-10-18T13:52:01.036Z,51.80
2018-10-18T13:54:31.593Z,52.10
2018-10-18T13:57:01.901Z,52.30
2018-10-18T13:59:49.188Z,51.90
2018-10-18T14:02:20.418Z,51.30
2018-10-18T14:04:50.682Z,51.30
2018-10-18T14:07:21.012Z,50.40
2018-10-18T14:09:51.326Z,51.20
2018-10-18T14:12:21.651Z,51.30
2018-10-18T14:14:51.983Z,51.20
2018-10-18T14:17:22.427Z,51.50
2018-10-18T14:19:52.748Z,51.80
2018-10-18T14:22:23.013Z,52.30
2018-10-18T14:24:53.436Z,52.80
2018-10-18T14:27:23.758Z,53.20
2018-10-18T14:29:54.128Z,53.20
2018-10-18T14:32:24.422Z,53.50
2018-10-18T14:34:54.769Z,53.80
2018-10-18T14:37:25.105Z,54.40
2018-10-18T14:39:55.428Z,54.80
2018-10-18T14:42:25.778Z,55.10
2018-10-18T14:44:56.171Z,55.70
2018-10-18T14:47:26.517Z,55.60
2018-10-18T14:49:56.836Z,55.80
2018-10-18T14:52:27.251Z,56.50
2018-10-18T14:54:57.557Z,57.30
2018-10-18T14:57:27.940Z,58.20
2018-10-18T14:59:58.289Z,59.30
2018-10-18T15:02:28.718Z,59.40
2018-10-18T15:04:59.205Z,60.70
2018-10-18T15:07:29.518Z,60.70
2018-10-18T15:09:59.910Z,59.90
2018-10-18T15:12:30.336Z,60.00
2018-10-18T15:15:00.671Z,60.20
2018-10-18T15:17:31.572Z,60.40
2018-10-18T15:20:01.990Z,60.70
2018-10-18T15:22:32.857Z,60.80
2018-10-18T15:25:04.484Z,61.30
2018-10-18T15:27:34.871Z,62.10
2018-10-18T15:30:06.357Z,62.30
2018-10-18T15:32:36.910Z,62.70
2018-10-18T15:35:09.085Z,62.90
2018-10-18T15:37:39.713Z,62.80
2018-10-18T15:40:10.520Z,63.40
2018-10-18T15:42:40.884Z,63.70
2018-10-18T15:45:11.343Z,63.50
2018-10-18T15:47:41.688Z,64.30
2018-10-18T15:50:12.004Z,65.20
2018-10-18T15:52:42.378Z,66.00
2018-10-18T15:55:12.719Z,66.70
2018-10-18T15:57:43.047Z,67.50
2018-10-18T16:00:13.627Z,67.90
2018-10-18T16:02:43.946Z,68.10
2018-10-18T16:05:14.390Z,69.90
2018-10-18T16:07:44.682Z,70.00
2018-10-18T16:10:15.197Z,69.30
2018-10-18T16:12:45.536Z,69.00
2018-10-18T16:15:15.905Z,69.80
2018-10-18T16:17:46.459Z,70.40
2018-10-18T16:20:16.741Z,71.20
2018-10-18T16:22:47.044Z,71.30
2018-10-18T16:25:17.460Z,71.20
2018-10-18T16:27:47.872Z,71.40
2018-10-18T16:30:18.864Z,71.80
2018-10-18T16:32:49.204Z,72.00
2018-10-18T16:35:19.680Z,72.00
2018-10-18T16:37:50.048Z,71.90
2018-10-18T16:40:21.606Z,71.50
2018-10-18T16:42:52.020Z,71.60
2018-10-18T16:45:22.628Z,72.00
2018-10-18T16:47:52.973Z,72.10
2018-10-18T16:50:23.344Z,72.20
2018-10-18T16:52:53.809Z,72.60
2018-10-18T16:55:24.214Z,73.00
2018-10-18T16:57:54.660Z,72.70
2018-10-18T17:00:25.057Z,73.70
2018-10-18T17:02:55.855Z,73.50
2018-10-18T17:05:26.427Z,73.10
2018-10-18T17:07:57.018Z,74.30
2018-10-18T17:10:27.694Z,73.80
2018-10-18T17:12:58.689Z,73.90
2018-10-18T17:15:30.349Z,73.80
2018-10-18T17:18:02.204Z,74.00
2018-10-18T17:20:32.696Z,74.50
2018-10-18T17:23:02.957Z,75.40
2018-10-18T17:25:33.344Z,75.80
2018-10-18T17:28:04.717Z,76.50
2018-10-18T17:30:35.149Z,76.20
2018-10-18T17:33:05.745Z,76.00
2018-10-18T17:35:36.183Z,76.00
2018-10-18T17:38:07.030Z,76.50
2018-10-18T17:40:37.375Z,76.80
2018-10-18T17:43:07.802Z,76.90
2018-10-18T17:45:38.323Z,77.40
2018-10-18T17:48:08.802Z,77.40
2018-10-18T17:50:39.275Z,77.90
2018-10-18T17:53:09.887Z,78.10
2018-10-18T17:55:40.411Z,77.80
2018-10-18T17:58:10.871Z,77.50
2018-10-18T18:00:41.329Z,77.40
2018-10-18T18:03:11.890Z,77.80
2018-10-18T18:05:42.435Z,77.90
2018-10-18T18:08:13.077Z,77.80
2018-10-18T18:10:43.579Z,77.70
2018-10-18T18:13:14.050Z,77.60
2018-10-18T18:15:44.701Z,77.40
2018-10-18T18:18:15.338Z,77.60
2018-10-18T18:20:45.848Z,78.00
2018-10-18T18:23:16.422Z,78.10
2018-10-18T18:25:46.912Z,78.00
2018-10-18T18:28:17.311Z,78.30
2018-10-18T18:30:47.886Z,78.80
2018-10-18T18:33:18.402Z,79.20
2018-10-18T18:35:49.908Z,79.60
2018-10-18T18:38:20.867Z,79.80
2018-10-18T18:40:51.684Z,80.10
2018-10-18T18:43:22.124Z,79.60
2018-10-18T18:45:52.707Z,80.40
2018-10-18T18:48:23.241Z,80.70
2018-10-18T18:50:54.191Z,80.20
2018-10-18T18:53:24.976Z,80.90
2018-10-18T18:55:57.234Z,80.20
2018-10-18T18:58:28.009Z,78.90
2018-10-18T19:01:03.581Z,77.40
2018-10-18T19:03:34.077Z,77.40
2018-10-18T19:06:06.522Z,77.40
2018-10-18T19:08:37.350Z,77.60
2018-10-18T19:11:08.867Z,78.30
2018-10-18T19:13:39.493Z,79.20
2018-10-18T19:16:10.142Z,79.20
2018-10-18T19:18:40.817Z,79.50
2018-10-18T19:21:12.404Z,79.10
2018-10-18T19:23:42.892Z,79.90
2018-10-18T19:26:15.105Z,80.40
2018-10-18T19:28:45.621Z,80.20
2018-10-18T19:31:16.063Z,80.20
2018-10-18T19:33:46.613Z,80.80
2018-10-18T19:36:17.125Z,80.80
2018-10-18T19:38:47.585Z,79.90
2018-10-18T19:41:18.053Z,79.10
2018-10-18T19:43:48.537Z,80.00
2018-10-18T19:46:19.169Z,80.00
2018-10-18T19:48:49.539Z,79.80
2018-10-18T19:51:20.025Z,79.60
2018-10-18T19:53:50.599Z,79.60
2018-10-18T19:56:21.072Z,79.70
2018-10-18T19:58:51.578Z,79.90
2018-10-18T20:01:22.021Z,80.50
2018-10-18T20:03:52.596Z,80.60
2018-10-18T20:06:23.051Z,80.60
2018-10-18T20:08:53.530Z,80.40
2018-10-18T20:11:24.527Z,80.70
2018-10-18T20:13:55.032Z,81.60
2018-10-18T20:16:25.464Z,82.00
2018-10-18T20:18:55.943Z,81.60
2018-10-18T20:21:26.470Z,82.20
2018-10-18T20:23:56.999Z,82.20
2018-10-18T20:26:27.643Z,82.20
2018-10-18T20:28:57.872Z,82.50
2018-10-18T20:31:28.293Z,82.20
2018-10-18T20:33:58.699Z,82.30
2018-10-18T20:36:29.144Z,82.40
2018-10-18T20:38:59.627Z,82.30
2018-10-18T20:41:29.945Z,82.40
2018-10-18T20:44:00.261Z,82.30
2018-10-18T20:46:30.617Z,82.00
2018-10-18T20:49:00.921Z,82.20
2018-10-18T20:51:32.114Z,83.10
2018-10-18T20:54:02.483Z,83.20
2018-10-18T20:56:32.710Z,83.20
2018-10-18T20:59:03.101Z,83.30
2018-10-18T21:01:33.406Z,83.40
2018-10-18T21:04:03.705Z,83.60
2018-10-18T21:06:34.150Z,83.50
2018-10-18T21:09:05.506Z,83.40
2018-10-18T21:11:35.755Z,83.70
2018-10-18T21:14:06.445Z,83.40
2018-10-18T21:16:36.777Z,83.60
2018-10-18T21:19:07.121Z,83.70
2018-10-18T21:21:37.477Z,84.00
2018-10-18T21:24:07.722Z,84.00
2018-10-18T21:26:38.189Z,84.00
2018-10-18T21:29:08.626Z,83.80
2018-10-18T21:31:38.818Z,83.50
2018-10-18T21:34:09.162Z,83.80
2018-10-18T21:36:39.429Z,84.30
2018-10-18T21:39:09.881Z,84.10
2018-10-18T21:41:40.241Z,83.90
2018-10-18T21:44:10.581Z,84.70
2018-10-18T21:46:40.888Z,84.20
2018-10-18T21:49:11.209Z,84.70
2018-10-18T21:51:41.690Z,85.10
2018-10-18T21:54:12.009Z,85.40
2018-10-18T21:56:42.462Z,85.50
2018-10-18T21:59:13.138Z,86.10
2018-10-18T22:01:43.496Z,86.30
2018-10-18T22:04:13.862Z,86.30
2018-10-18T22:06:44.389Z,86.60
2018-10-18T22:11:45.038Z,86.20
2018-10-18T22:14:15.948Z,86.90
2018-10-18T22:16:46.500Z,87.00
2018-10-18T22:19:16.822Z,86.80
2018-10-18T22:21:47.104Z,86.50
2018-10-18T22:24:17.393Z,86.50
2018-10-18T22:26:47.711Z,86.90
2018-10-18T22:29:18.102Z,87.20
2018-10-18T22:31:48.347Z,87.40
2018-10-18T22:34:18.638Z,87.30
2018-10-18T22:36:48.950Z,88.10
2018-10-18T22:39:19.252Z,87.90
2018-10-18T22:41:49.580Z,88.10
2018-10-18T22:44:19.967Z,88.00
2018-10-18T22:46:50.311Z,88.00
2018-10-18T22:49:20.607Z,88.30
2018-10-18T22:51:50.914Z,88.20
2018-10-18T22:54:21.257Z,88.20
2018-10-18T22:56:51.663Z,88.60
2018-10-18T22:59:22.033Z,88.90
2018-10-18T23:01:53.334Z,88.80
2018-10-18T23:04:23.703Z,88.90
2018-10-18T23:06:54.044Z,89.00
2018-10-18T23:09:24.390Z,88.90
2018-10-18T23:11:54.727Z,89.00
2018-10-18T23:14:25.005Z,88.90
2018-10-18T23:16:55.292Z,89.00
2018-10-18T23:19:25.604Z,89.30
2018-10-18T23:21:55.948Z,89.70
2018-10-18T23:24:26.278Z,89.80
2018-10-18T23:26:56.659Z,89.90
2018-10-18T23:29:26.986Z,90.00
2018-10-18T23:31:57.397Z,90.20
2018-10-18T23:34:27.760Z,90.20
2018-10-18T23:36:58.159Z,90.20
2018-10-18T23:39:28.531Z,90.20
2018-10-18T23:41:58.884Z,90.30
2018-10-18T23:44:29.298Z,90.30
2018-10-18T23:46:59.663Z,90.50
2018-10-18T23:49:30.002Z,90.50
2018-10-18T23:52:00.307Z,90.50
2018-10-18T23:54:30.655Z,90.50
2018-10-18T23:57:00.987Z,90.60
2018-10-18T23:59:31.282Z,90.60
